Time;durP1;ratioP1;P1;durP2;ratioP2;P2;SDS_P1;SDS_P2;PMS_P1;PMS_P2;Temp;Humidity;BMP_temperature;BMP_pressure;BME280_temperature;BME280_humidity;BME280_pressure;Samples;Min_cycle;Max_cycle;Signal;HPM_P1;HPM_P2
2021/12/01 00:00:33;;;;;;;7.30;1.20;;;20.60;56.50;;;;;;6146894;22;87671;-59
2021/12/01 00:02:59;;;;;;;4.30;1.45;;;20.60;56.60;;;;;;6147633;22;87553;-58
2021/12/01 00:05:30;;;;;;;4.75;0.93;;;20.60;56.70;;;;;;6148798;22;88146;-59
2021/12/01 00:07:56;;;;;;;3.40;0.95;;;20.60;56.70;;;;;;6147332;22;87625;-59
2021/12/01 00:10:26;;;;;;;3.90;1.08;;;20.50;56.70;;;;;;6147213;22;87815;-59
2021/12/01 00:12:52;;;;;;;3.88;1.25;;;20.50;56.80;;;;;;6147707;22;87249;-60
2021/12/01 00:15:19;;;;;;;2.25;1.02;;;20.50;56.80;;;;;;6148286;22;88729;-62
2021/12/01 00:17:45;;;;;;;3.58;1.02;;;20.50;56.80;;;;;;6147971;22;90585;-60
2021/12/01 00:20:13;;;;;;;2.83;1.00;;;20.50;56.80;;;;;;6145948;22;88699;-59
2021/12/01 00:22:40;;;;;;;2.78;0.88;;;20.40;56.80;;;;;;6146958;22;87449;-60
2021/12/01 00:25:08;;;;;;;2.40;0.80;;;20.40;56.90;;;;;;6148242;22;88039;-60
2021/12/01 00:27:34;;;;;;;5.25;1.00;;;20.40;56.90;;;;;;6148050;22;87732;-59
2021/12/01 00:30:00;;;;;;;3.95;1.13;;;20.40;56.90;;;;;;6148879;22;87534;-59
2021/12/01 00:32:27;;;;;;;3.55;0.90;;;20.40;57.00;;;;;;6148802;22;87550;-59
2021/12/01 00:34:53;;;;;;;2.35;0.93;;;20.40;57.00;;;;;;6146856;22;88374;-59
2021/12/01 00:37:19;;;;;;;5.00;1.00;;;20.40;57.00;;;;;;6147304;22;88211;-59
2021/12/01 00:39:45;;;;;;;2.63;0.90;;;20.40;57.00;;;;;;6148106;22;87079;-60
2021/12/01 00:42:12;;;;;;;2.92;1.02;;;20.40;57.00;;;;;;6147230;22;89234;-61
2021/12/01 00:44:45;;;;;;;2.63;0.93;;;20.30;57.00;;;;;;6146268;22;93423;-58
2021/12/01 00:47:12;;;;;;;2.65;0.75;;;20.30;57.00;;;;;;6147510;22;88105;-60
2021/12/01 00:49:38;;;;;;;3.80;1.23;;;20.30;57.10;;;;;;6147293;22;87740;-59
2021/12/01 00:52:04;;;;;;;2.67;0.70;;;20.30;57.10;;;;;;6147153;22;87681;-58
2021/12/01 00:54:30;;;;;;;4.55;0.80;;;20.30;57.10;;;;;;6147270;22;87531;-60
2021/12/01 00:56:56;;;;;;;1.88;0.82;;;20.30;57.30;;;;;;6147553;22;87864;-59
2021/12/01 00:59:21;;;;;;;4.70;1.30;;;20.30;57.20;;;;;;6147703;22;87441;-59
2021/12/01 01:01:47;;;;;;;2.60;0.90;;;20.30;57.20;;;;;;6146728;22;87500;-59
2021/12/01 01:04:14;;;;;;;2.92;0.85;;;20.20;57.10;;;;;;6147674;22;87617;-60
2021/12/01 01:06:41;;;;;;;2.60;0.80;;;20.30;57.20;;;;;;6147778;22;87525;-59
2021/12/01 01:09:08;;;;;;;5.22;0.90;;;20.20;57.20;;;;;;6146445;22;88011;-58
2021/12/01 01:17:22;;;;;;;2.30;0.90;;;20.20;57.20;;;;;;6120539;22;87972;-60
2021/12/01 01:19:51;;;;;;;2.35;1.23;;;20.20;57.30;;;;;;6149339;22;87499;-60
2021/12/01 01:22:16;;;;;;;1.75;0.90;;;20.20;57.30;;;;;;6149366;22;87919;-59
2021/12/01 01:24:42;;;;;;;3.95;0.82;;;20.10;57.30;;;;;;6149385;22;87767;-58
2021/12/01 01:27:08;;;;;;;2.75;0.90;;;20.20;57.30;;;;;;6148697;22;90431;-58
2021/12/01 01:29:36;;;;;;;4.55;0.80;;;20.20;57.40;;;;;;6149181;22;88029;-59
2021/12/01 01:32:02;;;;;;;2.72;1.10;;;20.10;57.30;;;;;;6148855;22;87700;-59
2021/12/01 01:34:28;;;;;;;2.40;0.90;;;20.10;57.30;;;;;;6148868;22;89729;-59
2021/12/01 01:36:54;;;;;;;2.75;0.88;;;20.10;57.40;;;;;;6149922;22;88786;-59
2021/12/01 01:39:21;;;;;;;2.15;0.88;;;20.20;57.50;;;;;;6148418;22;87017;-60
2021/12/01 01:41:47;;;;;;;1.77;0.60;;;20.10;57.40;;;;;;6147577;22;87936;-60
2021/12/01 01:44:12;;;;;;;3.60;0.93;;;20.10;57.50;;;;;;6149148;22;87727;-59
2021/12/01 01:46:40;;;;;;;1.92;0.65;;;20.10;57.50;;;;;;6149396;22;87422;-59
2021/12/01 01:51:57;;;;;;;1.75;0.60;;;20.10;57.50;;;;;;6132313;22;86929;-58
2021/12/01 01:54:23;;;;;;;2.67;0.57;;;20.00;57.50;;;;;;6148508;22;87670;-58
2021/12/01 01:56:48;;;;;;;0.95;0.60;;;20.10;57.60;;;;;;6148644;22;87392;-59
2021/12/01 01:59:14;;;;;;;2.95;0.80;;;20.00;57.50;;;;;;6148815;22;88999;-59
2021/12/01 02:01:52;;;;;;;2.67;0.68;;;20.10;57.60;;;;;;6149551;22;87721;-60
2021/12/01 02:04:18;;;;;;;2.88;0.60;;;20.00;57.60;;;;;;6147165;22;91188;-62
2021/12/01 02:06:49;;;;;;;2.25;0.70;;;20.00;57.60;;;;;;6149252;22;88226;-59
2021/12/01 02:09:16;;;;;;;1.98;0.88;;;20.00;57.60;;;;;;6148459;22;87661;-60
2021/12/01 02:11:42;;;;;;;2.50;0.70;;;20.00;57.60;;;;;;6148689;22;90617;-59
2021/12/01 02:14:08;;;;;;;1.30;0.60;;;20.00;57.60;;;;;;6147858;22;90542;-60
2021/12/01 02:16:35;;;;;;;1.63;0.68;;;20.00;57.70;;;;;;6149048;22;90616;-59
2021/12/01 02:19:00;;;;;;;2.97;0.80;;;20.00;57.60;;;;;;6148131;22;87876;-59
2021/12/01 02:21:30;;;;;;;1.10;0.60;;;20.00;57.70;;;;;;6148606;22;87982;-58
2021/12/01 02:23:59;;;;;;;3.40;0.93;;;20.00;57.70;;;;;;6148065;22;89169;-59
2021/12/01 02:26:28;;;;;;;1.58;0.70;;;19.90;57.60;;;;;;6148842;22;88808;-59
2021/12/01 02:28:57;;;;;;;4.38;0.98;;;19.90;57.70;;;;;;6149391;22;87301;-59
2021/12/01 02:31:28;;;;;;;2.33;0.80;;;19.90;57.70;;;;;;6149520;22;87751;-59
2021/12/01 02:33:54;;;;;;;1.65;0.70;;;20.00;57.70;;;;;;6149617;22;87817;-59
2021/12/01 02:36:20;;;;;;;1.88;0.90;;;20.00;57.80;;;;;;6149642;22;87496;-59
2021/12/01 02:38:48;;;;;;;1.10;0.60;;;19.90;57.70;;;;;;6148685;22;87540;-59
2021/12/01 02:41:17;;;;;;;1.88;0.73;;;19.90;57.70;;;;;;6148231;22;86708;-59
2021/12/01 02:43:46;;;;;;;1.20;0.60;;;19.90;57.70;;;;;;6148036;22;88005;-59
2021/12/01 02:46:11;;;;;;;2.17;0.60;;;19.90;57.70;;;;;;6149372;22;87949;-60
2021/12/01 02:48:43;;;;;;;2.00;0.60;;;19.90;57.70;;;;;;6148630;22;89129;-59
2021/12/01 02:51:10;;;;;;;1.50;0.70;;;19.90;57.70;;;;;;6148953;22;89090;-59
2021/12/01 02:53:37;;;;;;;1.65;0.60;;;19.90;57.70;;;;;;6148711;22;87829;-59
2021/12/01 02:56:04;;;;;;;0.98;0.43;;;19.90;57.70;;;;;;6147887;22;87786;-59
2021/12/01 02:58:32;;;;;;;1.75;0.50;;;19.80;57.70;;;;;;6148766;22;87838;-59
2021/12/01 03:01:00;;;;;;;1.35;0.80;;;19.80;58.20;;;;;;6148246;22;87935;-59
2021/12/01 03:03:27;;;;;;;0.75;0.50;;;19.80;57.70;;;;;;6147949;22;88111;-59
2021/12/01 03:05:54;;;;;;;2.38;0.68;;;19.80;57.80;;;;;;6148941;22;87657;-59
2021/12/01 03:08:20;;;;;;;1.65;0.70;;;19.80;57.80;;;;;;6148253;22;87754;-59
2021/12/01 03:10:49;;;;;;;1.50;0.68;;;19.80;57.80;;;;;;6147194;22;90172;-59
2021/12/01 03:13:16;;;;;;;1.95;0.90;;;19.80;57.80;;;;;;6147904;22;89043;-59
2021/12/01 03:15:42;;;;;;;1.88;0.70;;;19.80;57.80;;;;;;6146288;22;90147;-59
2021/12/01 03:18:09;;;;;;;2.22;0.73;;;19.70;57.80;;;;;;6148728;22;87438;-59
2021/12/01 03:20:35;;;;;;;1.30;0.70;;;19.70;57.80;;;;;;6149305;22;87401;-60
2021/12/01 03:23:00;;;;;;;1.08;0.57;;;19.80;57.90;;;;;;6148621;22;87862;-60
2021/12/01 03:25:27;;;;;;;1.17;0.60;;;19.70;57.90;;;;;;6148722;22;88210;-60
2021/12/01 03:27:53;;;;;;;1.75;0.63;;;19.70;57.90;;;;;;6149155;22;87428;-59
2021/12/01 03:30:19;;;;;;;1.75;0.57;;;19.70;57.90;;;;;;6149800;22;86918;-58
2021/12/01 03:32:45;;;;;;;2.15;0.63;;;19.70;57.90;;;;;;6147990;22;89925;-59
2021/12/01 03:35:13;;;;;;;1.42;0.90;;;19.70;58.00;;;;;;6148329;22;87854;-59
2021/12/01 03:37:41;;;;;;;1.38;0.63;;;19.70;57.90;;;;;;6148472;22;88323;-59
2021/12/01 03:40:08;;;;;;;2.33;0.88;;;19.70;57.90;;;;;;6148388;22;87645;-58
2021/12/01 03:42:34;;;;;;;1.27;0.70;;;19.70;58.00;;;;;;6149639;22;87756;-59
2021/12/01 03:45:00;;;;;;;1.35;0.70;;;19.70;58.00;;;;;;6148912;22;88097;-59
2021/12/01 03:47:27;;;;;;;1.50;0.80;;;19.60;58.00;;;;;;6148894;22;87126;-59
2021/12/01 03:49:54;;;;;;;1.30;0.50;;;19.60;58.00;;;;;;6148052;22;88012;-60
2021/12/01 03:52:21;;;;;;;2.67;0.70;;;19.60;58.00;;;;;;6148548;22;87634;-59
2021/12/01 03:54:47;;;;;;;0.90;0.70;;;19.60;58.00;;;;;;6149366;22;87648;-60
2021/12/01 03:57:14;;;;;;;1.63;0.60;;;19.60;58.00;;;;;;6149523;22;87522;-59
2021/12/01 03:59:42;;;;;;;1.02;0.70;;;19.60;58.00;;;;;;6148301;22;87351;-59
2021/12/01 04:02:09;;;;;;;2.25;0.60;;;19.60;58.00;;;;;;6146263;22;90527;-59
2021/12/01 04:04:35;;;;;;;1.15;0.52;;;19.60;58.00;;;;;;6148162;22;88145;-59
2021/12/01 04:07:01;;;;;;;1.08;0.47;;;19.60;58.10;;;;;;6147328;22;87881;-59
2021/12/01 04:09:27;;;;;;;0.77;0.50;;;19.50;58.00;;;;;;6148087;22;87590;-60
2021/12/01 04:11:53;;;;;;;4.93;0.82;;;19.50;58.00;;;;;;6148936;22;87661;-59
2021/12/01 04:14:19;;;;;;;1.27;0.57;;;19.50;58.10;;;;;;6148296;22;88009;-59
2021/12/01 04:16:45;;;;;;;2.38;0.60;;;19.50;58.10;;;;;;6148988;22;87669;-59
2021/12/01 04:19:10;;;;;;;1.63;0.50;;;19.50;58.10;;;;;;6149051;22;86819;-59
2021/12/01 04:21:37;;;;;;;1.90;0.75;;;19.50;58.10;;;;;;6147185;22;87782;-59
2021/12/01 04:24:02;;;;;;;0.93;0.40;;;19.50;58.10;;;;;;6148862;22;87889;-58
2021/12/01 04:26:31;;;;;;;1.42;0.65;;;19.50;58.10;;;;;;6148308;22;88491;-59
2021/12/01 04:28:57;;;;;;;1.65;0.70;;;19.50;58.10;;;;;;6148690;22;87916;-59
2021/12/01 04:31:24;;;;;;;1.38;0.70;;;19.50;58.10;;;;;;6147665;22;87654;-58
2021/12/01 04:33:50;;;;;;;2.00;0.70;;;19.50;58.10;;;;;;6148808;22;87621;-60
2021/12/01 04:36:20;;;;;;;2.80;0.65;;;19.50;58.10;;;;;;6148985;22;87997;-60
2021/12/01 04:38:45;;;;;;;1.25;0.63;;;19.40;58.10;;;;;;6148402;22;87244;-59
2021/12/01 04:41:13;;;;;;;1.17;0.52;;;19.40;58.10;;;;;;6148872;22;88224;-59
2021/12/01 04:43:40;;;;;;;2.20;0.52;;;19.40;58.10;;;;;;6147611;22;90848;-59
2021/12/01 04:46:05;;;;;;;1.75;0.47;;;19.40;58.10;;;;;;6148424;22;87449;-59
2021/12/01 04:48:32;;;;;;;0.93;0.43;;;19.40;58.20;;;;;;6149037;22;87914;-60
2021/12/01 04:50:59;;;;;;;1.65;0.50;;;19.40;58.20;;;;;;6148080;22;89214;-60
2021/12/01 04:53:25;;;;;;;1.58;0.50;;;19.40;58.20;;;;;;6149080;22;88754;-59
2021/12/01 04:55:52;;;;;;;0.77;0.43;;;19.40;58.20;;;;;;6148363;22;87703;-59
2021/12/01 04:58:18;;;;;;;1.55;0.52;;;19.30;58.20;;;;;;6148648;22;87132;-60
2021/12/01 05:00:44;;;;;;;1.05;0.50;;;19.30;58.20;;;;;;6150114;22;87394;-60
2021/12/01 05:03:09;;;;;;;1.67;0.65;;;19.30;58.30;;;;;;6149055;22;87936;-59
2021/12/01 05:05:35;;;;;;;1.05;0.50;;;19.40;58.30;;;;;;6148207;22;87747;-59
2021/12/01 05:08:01;;;;;;;1.33;0.57;;;19.30;58.30;;;;;;6148442;22;87047;-59
2021/12/01 05:10:27;;;;;;;2.45;0.90;;;19.30;58.40;;;;;;6147740;22;87758;-60
2021/12/01 05:12:52;;;;;;;1.23;0.50;;;19.30;58.30;;;;;;6147675;22;87898;-59
2021/12/01 05:15:18;;;;;;;1.30;0.40;;;19.30;58.30;;;;;;6147247;22;88145;-59
2021/12/01 05:17:43;;;;;;;1.15;0.40;;;19.30;58.30;;;;;;6147554;22;87415;-59
2021/12/01 05:20:11;;;;;;;0.52;0.50;;;19.30;58.30;;;;;;6148444;22;90631;-60
2021/12/01 05:22:38;;;;;;;3.40;0.82;;;19.30;58.30;;;;;;6148666;22;87421;-60
2021/12/01 05:25:05;;;;;;;0.73;0.43;;;19.30;58.40;;;;;;6149161;22;87026;-60
2021/12/01 05:27:31;;;;;;;0.82;0.52;;;19.20;58.30;;;;;;6148246;22;87818;-60
2021/12/01 05:29:57;;;;;;;1.30;0.65;;;19.20;58.40;;;;;;6149623;22;87596;-60
2021/12/01 05:32:22;;;;;;;1.90;0.85;;;19.30;58.50;;;;;;6149422;22;87200;-60
2021/12/01 05:34:48;;;;;;;2.15;0.40;;;19.30;58.50;;;;;;6149537;22;87794;-59
2021/12/01 05:37:14;;;;;;;0.77;0.40;;;19.40;58.40;;;;;;6149266;22;87644;-59
2021/12/01 05:39:41;;;;;;;1.25;0.63;;;19.50;58.30;;;;;;6148363;22;89605;-59
2021/12/01 05:42:08;;;;;;;2.72;0.70;;;19.60;58.20;;;;;;6149328;22;88078;-60
2021/12/01 05:44:35;;;;;;;0.93;0.50;;;19.70;58.10;;;;;;6149890;22;87343;-60
2021/12/01 05:47:01;;;;;;;1.02;0.50;;;19.70;57.90;;;;;;6150196;22;87835;-60
2021/12/01 05:49:27;;;;;;;0.82;0.50;;;19.90;57.80;;;;;;6149463;22;87803;-59
2021/12/01 05:51:53;;;;;;;1.20;0.50;;;19.90;57.70;;;;;;6149050;22;87683;-59
2021/12/01 05:54:19;;;;;;;0.98;0.30;;;20.00;57.60;;;;;;6149115;22;87974;-58
2021/12/01 05:56:45;;;;;;;1.27;0.52;;;20.10;57.50;;;;;;6147836;22;90105;-60
2021/12/01 05:59:10;;;;;;;1.20;0.55;;;20.20;57.40;;;;;;6148458;22;87909;-60
2021/12/01 06:01:36;;;;;;;1.17;0.38;;;20.20;57.40;;;;;;6149061;22;87350;-60
2021/12/01 06:04:02;;;;;;;2.67;0.85;;;20.30;57.40;;;;;;6147095;22;88584;-60
2021/12/01 06:06:28;;;;;;;1.13;0.50;;;20.40;57.30;;;;;;6147244;22;87558;-59
2021/12/01 06:08:55;;;;;;;2.83;0.70;;;20.50;57.30;;;;;;6147693;22;87806;-59
2021/12/01 06:11:21;;;;;;;1.77;0.90;;;20.50;57.20;;;;;;6149015;22;87251;-59
2021/12/01 06:13:50;;;;;;;1.55;0.40;;;20.50;57.10;;;;;;6149612;22;87517;-61
2021/12/01 06:16:19;;;;;;;0.88;0.40;;;20.60;57.60;;;;;;6149065;22;87835;-60
2021/12/01 06:18:45;;;;;;;2.72;0.40;;;20.60;57.10;;;;;;6149840;22;88129;-60
2021/12/01 06:21:10;;;;;;;1.95;0.50;;;20.60;57.10;;;;;;6148566;22;86937;-60
2021/12/01 06:23:36;;;;;;;0.38;0.30;;;20.60;57.00;;;;;;6149884;22;87504;-61
2021/12/01 06:26:02;;;;;;;3.50;0.50;;;20.60;57.10;;;;;;6148780;22;87381;-60
2021/12/01 06:28:28;;;;;;;1.38;0.50;;;20.60;57.10;;;;;;6148163;22;89253;-61
2021/12/01 06:30:54;;;;;;;1.20;0.60;;;20.60;57.20;;;;;;6148451;22;88140;-61
2021/12/01 06:33:21;;;;;;;0.90;0.45;;;20.60;57.20;;;;;;6149643;22;87194;-61
2021/12/01 06:35:49;;;;;;;1.20;0.40;;;20.60;57.40;;;;;;6150043;22;87636;-60
2021/12/01 06:38:16;;;;;;;2.10;0.50;;;20.50;57.40;;;;;;6149058;22;88087;-60
2021/12/01 06:40:42;;;;;;;2.17;0.60;;;20.50;57.50;;;;;;6148852;22;87181;-60
2021/12/01 06:43:08;;;;;;;4.00;0.60;;;20.50;57.50;;;;;;6148840;22;88014;-61
2021/12/01 06:45:33;;;;;;;1.75;0.40;;;20.50;57.60;;;;;;6149591;22;86919;-60
2021/12/01 06:47:59;;;;;;;4.32;0.40;;;20.50;57.60;;;;;;6148607;22;89898;-61
2021/12/01 06:50:25;;;;;;;4.35;0.70;;;20.50;57.70;;;;;;6149613;22;88351;-61
2021/12/01 06:52:51;;;;;;;1.55;0.40;;;20.50;57.70;;;;;;6149316;22;88287;-60
2021/12/01 06:55:16;;;;;;;0.70;0.40;;;20.50;57.80;;;;;;6148556;22;87907;-61
2021/12/01 06:57:42;;;;;;;2.08;0.50;;;20.50;57.80;;;;;;6147576;22;88006;-60
2021/12/01 07:00:11;;;;;;;3.42;0.50;;;20.50;57.80;;;;;;6147687;22;87628;-60
2021/12/01 07:02:38;;;;;;;0.87;0.40;;;20.50;57.70;;;;;;6147712;22;87776;-65
2021/12/01 07:05:04;;;;;;;7.72;0.70;;;20.60;57.80;;;;;;6148143;22;87423;-60
2021/12/01 07:07:30;;;;;;;4.47;0.55;;;20.60;57.80;;;;;;6148896;22;89647;-61
2021/12/01 07:09:55;;;;;;;1.08;0.35;;;20.60;57.80;;;;;;6147407;22;89419;-60
2021/12/01 07:12:22;;;;;;;341.58;47.03;;;20.60;57.90;;;;;;6148891;22;87769;-59
2021/12/01 07:14:48;;;;;;;317.15;45.50;;;20.60;57.90;;;;;;6146832;22;89264;-60
2021/12/01 07:17:14;;;;;;;230.30;32.83;;;20.50;57.90;;;;;;6147573;22;89564;-57
2021/12/01 07:19:40;;;;;;;122.30;19.67;;;20.60;58.00;;;;;;6148185;22;88825;-59
2021/12/01 07:22:05;;;;;;;87.25;13.07;;;20.60;58.10;;;;;;6147184;22;88078;-68
2021/12/01 07:24:31;;;;;;;66.82;11.20;;;20.50;58.00;;;;;;6148473;22;87596;-60
2021/12/01 07:26:57;;;;;;;59.13;9.43;;;20.50;57.90;;;;;;6148815;22;87882;-60
2021/12/01 07:29:23;;;;;;;36.72;7.28;;;20.60;57.90;;;;;;6150148;22;87268;-59
2021/12/01 07:31:48;;;;;;;54.45;7.40;;;20.50;57.70;;;;;;6150588;22;87115;-58
2021/12/01 07:34:15;;;;;;;33.65;5.90;;;20.50;57.80;;;;;;6150286;22;87061;-60
2021/12/01 07:36:40;;;;;;;29.48;5.05;;;20.50;58.00;;;;;;6150281;22;87177;-60
2021/12/01 07:39:06;;;;;;;28.00;5.03;;;20.50;58.10;;;;;;6149414;22;87101;-60
2021/12/01 07:41:32;;;;;;;31.23;4.88;;;20.40;58.10;;;;;;6149652;22;87910;-59
2021/12/01 07:43:57;;;;;;;24.60;6.05;;;20.40;58.10;;;;;;6148715;22;88286;-59
2021/12/01 07:46:23;;;;;;;27.13;4.90;;;20.40;58.20;;;;;;6150837;22;88496;-59
2021/12/01 07:48:49;;;;;;;23.50;5.28;;;20.40;58.40;;;;;;6150401;22;87669;-59
2021/12/01 07:51:15;;;;;;;27.10;6.15;;;20.40;58.50;;;;;;6149213;22;87583;-59
2021/12/01 07:53:42;;;;;;;23.60;4.78;;;20.40;58.50;;;;;;6148190;22;87256;-59
2021/12/01 07:56:08;;;;;;;21.33;5.00;;;20.30;58.50;;;;;;6147953;22;88000;-59
2021/12/01 07:58:34;;;;;;;20.60;4.90;;;20.40;58.50;;;;;;6148026;22;87702;-58
2021/12/01 08:01:00;;;;;;;25.65;4.82;;;20.40;58.30;;;;;;6149404;22;87306;-59
2021/12/01 08:03:25;;;;;;;14.48;4.43;;;20.40;58.20;;;;;;6147727;22;88281;-59
2021/12/01 08:05:51;;;;;;;18.33;5.28;;;20.50;58.10;;;;;;6147457;22;89875;-59
2021/12/01 08:08:17;;;;;;;19.90;3.78;;;20.60;58.00;;;;;;6148033;22;89296;-60
2021/12/01 08:10:45;;;;;;;15.20;3.03;;;20.60;57.80;;;;;;6147789;22;88193;-58
2021/12/01 08:13:10;;;;;;;19.45;3.65;;;20.70;57.70;;;;;;6147868;22;87823;-59
2021/12/01 08:15:36;;;;;;;16.20;3.53;;;20.70;57.50;;;;;;6146200;22;87674;-60
2021/12/01 08:18:02;;;;;;;14.65;3.63;;;20.70;57.40;;;;;;6147765;22;87790;-58
2021/12/01 08:20:28;;;;;;;13.27;2.92;;;20.80;57.20;;;;;;6149229;22;87777;-59
2021/12/01 08:22:54;;;;;;;14.02;3.85;;;20.80;57.10;;;;;;6148778;22;86885;-59
2021/12/01 08:25:21;;;;;;;14.13;3.17;;;20.80;57.00;;;;;;6147424;22;91153;-59
2021/12/01 08:27:46;;;;;;;12.75;3.05;;;20.80;56.80;;;;;;6148640;22;88514;-59
2021/12/01 08:30:12;;;;;;;12.93;3.10;;;20.80;56.80;;;;;;6148021;22;88267;-59
2021/12/01 08:32:38;;;;;;;10.25;2.80;;;20.80;56.60;;;;;;6148825;22;87525;-59
2021/12/01 08:35:04;;;;;;;8.85;2.33;;;20.80;56.50;;;;;;6148708;22;88134;-59
2021/12/01 08:37:30;;;;;;;10.38;2.70;;;20.80;56.50;;;;;;6148518;22;88253;-59
2021/12/01 08:39:55;;;;;;;10.18;2.50;;;20.80;56.50;;;;;;6148780;22;87687;-58
2021/12/01 08:42:23;;;;;;;9.70;2.38;;;20.80;56.50;;;;;;6148764;22;87322;-59
2021/12/01 08:44:50;;;;;;;10.10;2.55;;;20.80;56.50;;;;;;6148831;22;87981;-58
2021/12/01 08:47:20;;;;;;;11.73;2.55;;;20.80;56.50;;;;;;6148752;22;87339;-59
2021/12/01 08:49:46;;;;;;;7.28;2.15;;;20.70;56.50;;;;;;6144440;22;87843;-60
2021/12/01 08:52:11;;;;;;;11.82;2.60;;;20.70;56.50;;;;;;6147633;22;87078;-59
2021/12/01 08:54:38;;;;;;;6.65;2.15;;;20.70;56.50;;;;;;6147688;22;89053;-59
2021/12/01 08:57:04;;;;;;;8.82;1.88;;;20.70;56.50;;;;;;6147382;22;87740;-59
2021/12/01 08:59:30;;;;;;;7.90;1.60;;;20.70;56.50;;;;;;6146708;22;87984;-59
2021/12/01 09:01:56;;;;;;;9.80;2.70;;;20.70;56.60;;;;;;6140307;22;87663;-59
2021/12/01 09:04:21;;;;;;;6.00;2.47;;;20.70;56.60;;;;;;6146390;22;87976;-59
2021/12/01 09:06:47;;;;;;;4.90;1.95;;;20.70;56.60;;;;;;6146644;22;87468;-59
2021/12/01 09:09:18;;;;;;;8.15;2.10;;;20.70;56.60;;;;;;6147026;22;87709;-58
2021/12/01 09:11:48;;;;;;;5.78;1.40;;;20.70;56.50;;;;;;6147866;22;86646;-59
2021/12/01 09:14:13;;;;;;;5.97;1.45;;;20.70;56.50;;;;;;6146916;22;88131;-58
2021/12/01 09:16:41;;;;;;;5.30;1.35;;;20.80;56.50;;;;;;6071916;22;90946;-59
2021/12/01 09:19:07;;;;;;;8.65;2.33;;;20.80;56.40;;;;;;6162214;22;87911;-59
2021/12/01 09:21:32;;;;;;;5.20;1.42;;;20.80;56.30;;;;;;6146747;22;87607;-59
2021/12/01 09:23:58;;;;;;;3.47;1.55;;;20.70;56.30;;;;;;6144182;22;87647;-66
2021/12/01 09:26:24;;;;;;;7.82;1.30;;;20.70;56.40;;;;;;6143751;22;87827;-63
2021/12/01 09:28:49;;;;;;;6.03;1.85;;;20.70;56.50;;;;;;6147573;22;87696;-63
2021/12/01 09:31:15;;;;;;;5.47;1.58;;;20.80;56.60;;;;;;6145222;22;88375;-63
2021/12/01 09:33:41;;;;;;;9.57;1.52;;;20.70;56.50;;;;;;6145267;22;88004;-63
2021/12/01 09:36:06;;;;;;;5.68;1.23;;;20.70;56.50;;;;;;6147284;22;87270;-62
2021/12/01 09:38:32;;;;;;;3.17;1.25;;;20.70;56.70;;;;;;6148193;22;87139;-65
2021/12/01 09:40:58;;;;;;;5.25;1.13;;;20.70;56.40;;;;;;6147893;22;88496;-62
2021/12/01 09:43:27;;;;;;;4.80;1.52;;;20.70;56.30;;;;;;6148638;22;88824;-62
2021/12/01 09:46:03;;;;;;;5.40;1.50;;;20.70;56.20;;;;;;6147434;22;87998;-61
2021/12/01 09:48:30;;;;;;;5.90;1.55;;;20.70;56.10;;;;;;6148123;22;87686;-63
2021/12/01 09:50:57;;;;;;;3.95;1.20;;;20.70;56.10;;;;;;6146436;22;88210;-63
2021/12/01 09:53:22;;;;;;;4.85;1.55;;;20.70;56.10;;;;;;6147924;22;88219;-63
2021/12/01 09:55:49;;;;;;;5.30;1.20;;;20.70;56.10;;;;;;6147863;22;87732;-59
2021/12/01 09:58:20;;;;;;;7.10;1.70;;;20.70;56.10;;;;;;6148278;22;87701;-62
2021/12/01 10:00:50;;;;;;;4.32;1.33;;;20.70;56.10;;;;;;6148463;22;87596;-63
2021/12/01 10:03:16;;;;;;;3.92;1.38;;;20.70;56.10;;;;;;6148005;22;88005;-62
2021/12/01 10:06:02;;;;;;;5.47;1.58;;;20.70;56.10;;;;;;6146818;22;87881;-62
2021/12/01 10:08:34;;;;;;;3.30;1.05;;;20.70;56.10;;;;;;6147139;22;88333;-62
2021/12/01 10:11:07;;;;;;;3.67;1.10;;;20.70;56.10;;;;;;6146987;22;87667;-63
2021/12/01 10:13:37;;;;;;;5.22;1.25;;;20.70;56.10;;;;;;6146260;22;87962;-61
2021/12/01 10:16:05;;;;;;;3.45;1.05;;;20.70;56.10;;;;;;6146040;22;88149;-63
2021/12/01 10:18:40;;;;;;;4.72;0.90;;;20.60;56.00;;;;;;6147971;22;87174;-63
2021/12/01 10:21:08;;;;;;;4.95;1.00;;;20.60;56.00;;;;;;6148183;22;87930;-63
2021/12/01 10:23:36;;;;;;;2.85;0.85;;;20.60;55.90;;;;;;6147083;22;91690;-62
2021/12/01 10:26:10;;;;;;;3.50;0.98;;;20.60;56.00;;;;;;6147643;22;87506;-62
2021/12/01 10:28:48;;;;;;;4.68;1.08;;;20.60;55.90;;;;;;6145991;22;87454;-62
2021/12/01 10:31:15;;;;;;;2.78;0.70;;;20.60;55.90;;;;;;6146814;22;87672;-61
2021/12/01 10:33:41;;;;;;;7.13;1.23;;;20.60;55.90;;;;;;6148324;22;88526;-63
2021/12/01 10:36:09;;;;;;;3.40;1.20;;;20.60;55.90;;;;;;6146899;22;90029;-63
2021/12/01 10:38:43;;;;;;;2.65;1.05;;;20.60;55.90;;;;;;6147658;22;88216;-62
2021/12/01 10:41:14;;;;;;;2.38;0.70;;;20.60;55.90;;;;;;6149915;22;87801;-61
2021/12/01 10:43:41;;;;;;;1.60;0.80;;;20.60;55.90;;;;;;6149433;22;88141;-61
2021/12/01 10:46:13;;;;;;;2.60;1.05;;;20.60;55.90;;;;;;6147617;22;88075;-60
2021/12/01 10:48:40;;;;;;;3.17;0.70;;;20.70;55.90;;;;;;6145937;22;87546;-61
2021/12/01 10:51:11;;;;;;;3.28;1.15;;;20.70;55.80;;;;;;6149734;22;86753;-61
2021/12/01 10:53:37;;;;;;;1.52;0.60;;;20.70;56.20;;;;;;6148882;22;87510;-62
2021/12/01 10:56:05;;;;;;;2.10;0.88;;;20.80;55.70;;;;;;6149377;22;87701;-62
2021/12/01 10:58:33;;;;;;;2.75;0.77;;;20.80;55.60;;;;;;6149155;22;88033;-60
2021/12/01 11:01:00;;;;;;;2.08;0.75;;;20.80;55.50;;;;;;6149655;22;87768;-61
2021/12/01 11:03:30;;;;;;;3.33;0.95;;;20.90;55.40;;;;;;6148875;22;88931;-61
2021/12/01 11:05:59;;;;;;;3.80;0.90;;;21.00;55.40;;;;;;6149471;22;89564;-61
2021/12/01 11:08:26;;;;;;;1.92;0.63;;;21.00;55.30;;;;;;6147618;22;88060;-62
2021/12/01 11:10:53;;;;;;;4.05;0.90;;;21.00;55.20;;;;;;6149689;22;87597;-62
2021/12/01 11:13:19;;;;;;;2.35;0.60;;;21.10;55.10;;;;;;6148386;22;91249;-61
2021/12/01 11:15:51;;;;;;;2.90;0.88;;;21.10;55.10;;;;;;6150047;22;87854;-62
2021/12/01 11:18:21;;;;;;;3.58;0.85;;;21.10;55.00;;;;;;6149356;22;87449;-61
2021/12/01 11:20:51;;;;;;;3.30;0.68;;;21.20;55.00;;;;;;6149487;22;87370;-61
2021/12/01 11:23:16;;;;;;;3.15;0.82;;;21.20;54.90;;;;;;6146582;22;89038;-61
2021/12/01 11:25:45;;;;;;;4.55;0.82;;;21.20;54.90;;;;;;6145559;22;92210;-61
2021/12/01 11:28:13;;;;;;;3.83;1.15;;;21.20;54.90;;;;;;6146437;22;87077;-60
2021/12/01 11:30:41;;;;;;;2.20;0.70;;;21.20;54.80;;;;;;6145136;22;90773;-60
2021/12/01 11:33:11;;;;;;;2.88;1.00;;;21.20;54.80;;;;;;6146319;22;88141;-61
2021/12/01 11:35:37;;;;;;;1.42;0.52;;;21.20;54.80;;;;;;6145419;22;88910;-62
2021/12/01 11:38:03;;;;;;;4.05;1.10;;;21.20;54.80;;;;;;6146017;22;87809;-61
2021/12/01 11:40:30;;;;;;;2.60;0.90;;;21.20;54.70;;;;;;6146225;22;87045;-58
2021/12/01 11:42:58;;;;;;;2.35;0.88;;;21.20;54.80;;;;;;6146106;22;89290;-62
2021/12/01 11:45:24;;;;;;;1.77;0.80;;;21.20;54.90;;;;;;6146674;22;88250;-60
2021/12/01 11:47:51;;;;;;;2.45;0.82;;;21.10;54.90;;;;;;6144091;22;88656;-60
2021/12/01 11:50:31;;;;;;;6.45;0.80;;;21.10;55.10;;;;;;6119149;22;88522;-62
2021/12/01 11:53:26;;;;;;;3.10;0.85;;;21.10;55.10;;;;;;6145715;22;87962;-62
2021/12/01 11:56:04;;;;;;;5.50;0.95;;;21.10;55.20;;;;;;6145600;22;88357;-59
2021/12/01 11:58:48;;;;;;;5.75;1.05;;;21.10;55.40;;;;;;6146935;22;87116;-61
2021/12/01 12:01:20;;;;;;;2.30;0.75;;;21.10;55.50;;;;;;6144212;22;87660;-62
2021/12/01 12:04:06;;;;;;;5.50;1.00;;;21.00;55.50;;;;;;6144105;22;91412;-61
2021/12/01 12:06:47;;;;;;;3.00;0.90;;;21.00;55.60;;;;;;6132960;22;88256;-61
2021/12/01 12:09:15;;;;;;;2.08;0.90;;;21.00;55.60;;;;;;6145403;22;87444;-61
2021/12/01 12:11:48;;;;;;;4.47;1.08;;;21.00;55.60;;;;;;6144085;22;89781;-60
2021/12/01 12:14:16;;;;;;;;;;;21.00;55.70;;;;;;6145443;22;89165;-61
2021/12/01 12:17:02;;;;;;;3.58;1.10;;;21.00;55.80;;;;;;6148237;22;89237;-63
2021/12/01 12:19:44;;;;;;;4.65;1.00;;;21.00;56.10;;;;;;6139919;22;87538;-63
2021/12/01 12:22:11;;;;;;;3.80;0.98;;;21.00;56.10;;;;;;6142852;22;89514;-61
2021/12/01 12:24:49;;;;;;;3.40;1.02;;;21.00;56.20;;;;;;6142115;22;91635;-63
2021/12/01 12:27:32;;;;;;;7.47;1.08;;;21.00;56.20;;;;;;6143486;22;87753;-61
2021/12/01 12:29:59;;;;;;;4.10;0.95;;;20.90;56.20;;;;;;6143478;22;86969;-61
2021/12/01 12:32:29;;;;;;;3.65;0.98;;;20.90;56.30;;;;;;6144172;22;86943;-63
2021/12/01 12:34:58;;;;;;;3.45;0.90;;;20.90;56.30;;;;;;6139374;22;87610;-60
2021/12/01 12:37:26;;;;;;;2.03;0.80;;;20.90;56.30;;;;;;6142542;22;87772;-61
2021/12/01 12:39:53;;;;;;;5.90;1.05;;;20.90;56.30;;;;;;6143435;22;89317;-60
2021/12/01 12:42:19;;;;;;;3.50;0.95;;;20.90;56.40;;;;;;6143390;22;87074;-61
2021/12/01 12:44:46;;;;;;;4.65;0.70;;;20.90;56.30;;;;;;6138859;22;88146;-62
2021/12/01 12:47:26;;;;;;;4.00;0.80;;;20.90;56.30;;;;;;6142449;22;87569;-64
2021/12/01 12:50:15;;;;;;;4.45;0.77;;;20.90;56.30;;;;;;6142560;22;87258;-64
2021/12/01 12:52:48;;;;;;;3.67;1.00;;;20.90;57.00;;;;;;6142745;22;87812;-65
2021/12/01 12:55:22;;;;;;;2.28;0.80;;;20.90;56.60;;;;;;6141270;22;87541;-65